Johann Essberger — CQKG — position and weather

sailwx.info

Track history (hours):
 
Tides and Currents Weather Stations Pressure Air Temp Water Temp Dewpoint Dewpoint Depression Visibility Wind Speed Wind Dir Waves Ship Positions

Johann Essberger

Last reported at 2017-Oct-17 13:31 UTC. Time now 2017-Oct-17 13:40 UTC.
Position N 51°09' E 001°38'.

Length 98 m; draft 5.8 m.

Type: Ship (hazmat cat B). MMSI: 255804460.

Date/timePositionNaut miles runAvg speedWind from/ knotsBaromVisibWave heightAir tempDewpointWater temp
2017-Oct-17 13:31N 51°09' E 001°38'510.3
2017-Oct-17 13:00N 51°13' E 001°44'510.3
2017-Oct-17 12:30N 51°17' E 001°48'510.0
2017-Oct-17 12:00N 51°22' E 001°52'5 9.9
2017-Oct-17 11:30N 51°26' E 001°56'510.2
2017-Oct-17 11:00N 51°30' E 002°01'510.6
2017-Oct-17 10:30N 51°34' E 002°07'511.1
2017-Oct-17 10:00N 51°38' E 002°13'5711.5
2017-Oct-17 05:03N 52°03' E 003°36'112.0
2017-Oct-17 05:00N 52°03' E 003°37'612.0
2017-Oct-17 04:30N 52°03' E 003°46'510.7
2017-Oct-17 04:00N 52°02' E 003°55'5 9.1
2017-Oct-17 03:30N 51°60' E 004°01'713.5
2017-Oct-17 03:00N 51°57' E 004°11'611.5
2017-Oct-17 02:30N 51°53' E 004°18'1 0.1
2017-Oct-16 15:59N 51°53' E 004°17'0 0.3
2017-Oct-16 15:31N 51°53' E 004°17'0 0.6
2017-Oct-16 15:01N 51°53' E 004°17'0 0.0
2017-Oct-16 10:08N 51°53' E 004°17'0 0.0
2017-Oct-16 05:23N 51°53' E 004°17'0 0.0
2017-Oct-16 04:59N 51°53' E 004°17'0 0.0
2017-Oct-16 04:23N 51°53' E 004°17'0 0.0
2017-Oct-16 03:59N 51°53' E 004°17'0 0.0
2017-Oct-16 03:26N 51°53' E 004°17'0 0.0
2017-Oct-16 02:47N 51°53' E 004°17'0 0.0
2017-Oct-16 00:44N 51°53' E 004°17'0 0.0
2017-Oct-15 23:38N 51°53' E 004°17'0 0.0
2017-Oct-15 23:26N 51°53' E 004°17'0 0.0
2017-Oct-15 20:17N 51°53' E 004°17'0 0.0
2017-Oct-15 19:41N 51°53' E 004°17'0 0.0
2017-Oct-15 19:29N 51°53' E 004°17'0 0.0
2017-Oct-15 18:59N 51°53' E 004°17'0 0.0
2017-Oct-15 17:41N 51°53' E 004°17'0 0.0
2017-Oct-15 17:20N 51°53' E 004°17'0 0.0
2017-Oct-15 16:17N 51°53' E 004°17'0 0.0
2017-Oct-15 14:55N 51°53' E 004°17'2 2.6
2017-Oct-15 14:00N 51°55' E 004°14'510.6
2017-Oct-15 13:31N 51°58' E 004°08'612.1
2017-Oct-15 13:01N 52°00' E 003°58'612.5
2017-Oct-15 12:30N 51°60' E 003°48'4 3.0
2017-Oct-15 11:08N 51°56' E 003°44'0 0.0
2017-Oct-15 10:56N 51°56' E 003°44'0 0.0
2017-Oct-15 10:26N 51°56' E 003°44'0 0.0
2017-Oct-15 09:56N 51°56' E 003°44'0 0.0
2017-Oct-15 09:20N 51°56' E 003°44'0 0.0
2017-Oct-15 08:56N 51°56' E 003°44'0 0.1
2017-Oct-15 08:26N 51°56' E 003°44'0 0.0
2017-Oct-15 07:56N 51°56' E 003°44'0 0.1
2017-Oct-15 07:29N 51°56' E 003°44'0 0.1
2017-Oct-15 06:59N 51°56' E 003°44'0 0.1
2017-Oct-15 06:20N 51°56' E 003°44'0 0.0
2017-Oct-15 05:56N 51°56' E 003°44'0 0.0
2017-Oct-15 05:20N 51°56' E 003°44'0 0.0
2017-Oct-15 04:59N 51°56' E 003°44'0 0.0
2017-Oct-15 04:23N 51°56' E 003°44'0 0.0
2017-Oct-15 03:56N 51°56' E 003°44'0 0.0
2017-Oct-15 03:29N 51°56' E 003°44'0 0.1
2017-Oct-15 02:23N 51°56' E 003°44'0 0.1
2017-Oct-15 01:59N 51°56' E 003°44'0 0.0
2017-Oct-15 01:29N 51°56' E 003°44'0 0.0
2017-Oct-15 00:56N 51°56' E 003°44'0 0.1
2017-Oct-15 00:29N 51°56' E 003°44'2 4.4
2017-Oct-15 00:00N 51°58' E 003°41'914.4
2017-Oct-14 23:24N 51°55' E 003°27'613.9
2017-Oct-14 22:59N 51°51' E 003°20'715.0
2017-Oct-14 22:30N 51°45' E 003°16'713.7
2017-Oct-14 22:00N 51°39' E 003°21'814.5
2017-Oct-14 21:29N 51°32' E 003°26'713.9
2017-Oct-14 21:00N 51°27' E 003°33'5 9.4
2017-Oct-14 20:30N 51°26' E 003°41'612.2
2017-Oct-14 20:00N 51°22' E 003°47'510.8
2017-Oct-14 19:30N 51°22' E 003°55'510.7
2017-Oct-14 19:00N 51°26' E 004°01'510.4
2017-Oct-14 18:30N 51°22' E 004°06'4 8.8
2017-Oct-14 18:00N 51°22' E 004°13'5 9.4
2017-Oct-14 17:30N 51°18' E 004°17'2 4.7
2017-Oct-14 17:00N 51°16' E 004°17'0 0.0
2017-Oct-14 16:31N 51°16' E 004°17'1 1.7
2017-Oct-14 16:00N 51°16' E 004°15'0 0.0
2017-Oct-14 15:28N 51°16' E 004°15'0 0.0
2017-Oct-14 14:55N 51°16' E 004°15'0 0.0
2017-Oct-14 14:28N 51°16' E 004°15'0 0.0
2017-Oct-14 13:58N 51°16' E 004°15'0 0.0
2017-Oct-14 13:25N 51°16' E 004°15'0 0.0
2017-Oct-14 12:55N 51°16' E 004°15'0 0.0
2017-Oct-14 12:28N 51°16' E 004°15'0 0.0
2017-Oct-14 11:55N 51°16' E 004°15'0 0.0
2017-Oct-14 11:22N 51°16' E 004°15'0 0.0
2017-Oct-14 10:55N 51°16' E 004°15'0 0.0
2017-Oct-14 10:22N 51°16' E 004°15'0 0.0
2017-Oct-14 09:58N 51°16' E 004°15'0 0.0
2017-Oct-14 09:28N 51°16' E 004°15'0 0.0
2017-Oct-14 08:58N 51°16' E 004°15'0 0.0
2017-Oct-14 08:25N 51°16' E 004°15'0 0.0
2017-Oct-14 07:49N 51°16' E 004°15'0 0.0
2017-Oct-14 07:28N 51°16' E 004°15'0 0.0
2017-Oct-14 06:58N 51°16' E 004°15'0 0.0
2017-Oct-14 06:22N 51°16' E 004°15'0 0.0
2017-Oct-14 05:58N 51°16' E 004°15'0 0.0
2017-Oct-14 05:28N 51°16' E 004°15'0 0.0
2017-Oct-14 04:58N 51°16' E 004°15'0 0.0
2017-Oct-14 04:30N 51°16' E 004°15'1 1.5
2017-Oct-14 04:00N 51°16' E 004°17'0 0.2
2017-Oct-14 03:31N 51°16' E 004°17'1 2.9
2017-Oct-14 03:00N 51°15' E 004°19'4 7.1
2017-Oct-14 02:31N 51°12' E 004°22'3 6.8
2017-Oct-14 02:00N 51°09' E 004°20'0 0.0
2017-Oct-13 18:34N 51°09' E 004°20'0 0.0
2017-Oct-13 18:13N 51°09' E 004°20'0 0.0
2017-Oct-13 16:52N 51°09' E 004°20'0 0.1
2017-Oct-13 16:30N 51°09' E 004°20'2 3.9
2017-Oct-13 16:00N 51°11' E 004°20'4 8.0
2017-Oct-13 15:30N 51°14' E 004°23'3 6.8
2017-Oct-13 15:01N 51°17' E 004°20'0 0.5
2017-Oct-13 14:30N 51°17' E 004°20'0 0.6
2017-Oct-13 14:00N 51°17' E 004°20'1 2.3
2017-Oct-13 13:30N 51°18' E 004°20'0 0.0
2017-Oct-13 12:31N 51°18' E 004°20'0 0.0
2017-Oct-13 12:01N 51°18' E 004°20'0 0.0
2017-Oct-13 11:49N 51°18' E 004°20'0 0.0
2017-Oct-13 11:01N 51°18' E 004°20'0 0.0
2017-Oct-13 10:43N 51°18' E 004°20'0 0.0
2017-Oct-13 10:25N 51°18' E 004°20'0 0.0
2017-Oct-12 23:55N 51°18' E 004°20'0 0.0
2017-Oct-12 22:25N 51°18' E 004°20'0 0.0
2017-Oct-12 10:57N 51°18' E 004°20'0 0.0
2017-Oct-12 02:09N 51°18' E 004°20'0 0.0
2017-Oct-12 01:39N 51°18' E 004°20'0 0.0
2017-Oct-12 01:27N 51°18' E 004°20'0 0.0
2017-Oct-12 00:39N 51°18' E 004°20'0 0.0
2017-Oct-12 00:15N 51°18' E 004°20'0 0.0
2017-Oct-12 00:01N 51°18' E 004°20'1 2.2
2017-Oct-11 23:30N 51°17' E 004°20'0 0.1
2017-Oct-11 23:00N 51°17' E 004°20'1 1.5
2017-Oct-11 22:30N 51°17' E 004°19'3 5.6
2017-Oct-11 22:00N 51°19' E 004°16'510.0
2017-Oct-11 21:31N 51°24' E 004°12'510.2
2017-Oct-11 21:00N 51°22' E 004°04'5 9.4
2017-Oct-11 20:30N 51°26' E 004°00'510.7
2017-Oct-11 20:00N 51°22' E 003°55'510.6
2017-Oct-11 19:30N 51°21' E 003°46'510.7
2017-Oct-11 19:00N 51°26' E 003°41'5 9.7
2017-Oct-11 18:30N 51°27' E 003°34'5 9.9
2017-Oct-11 18:00N 51°30' E 003°28'5 9.7
2017-Oct-11 17:30N 51°34' E 003°24'611.0
2017-Oct-11 16:57N 51°40' E 003°19'40 2.4
2017-Oct-10 23:53N 51°53' E 004°21'0 0.0
2017-Oct-10 23:29N 51°53' E 004°21'0 0.0
2017-Oct-10 22:59N 51°53' E 004°21'0 0.0
2017-Oct-10 22:29N 51°53' E 004°21'0 0.0
2017-Oct-10 21:59N 51°53' E 004°21'0 0.0
2017-Oct-10 21:20N 51°53' E 004°21'0 0.0
2017-Oct-10 20:59N 51°53' E 004°21'0 0.0
2017-Oct-10 20:29N 51°53' E 004°21'0 0.0
2017-Oct-10 20:00N 51°53' E 004°21'0 0.6
2017-Oct-10 19:30N 51°53' E 004°21'3 5.8
2017-Oct-10 19:00N 51°54' E 004°16'612.0
2017-Oct-10 18:30N 51°58' E 004°09'613.0
2017-Oct-10 18:00N 52°00' E 003°59'713.7
2017-Oct-10 17:29N 52°02' E 003°47'5 9.6
2017-Oct-10 17:00N 52°06' E 003°46'5 9.9
2017-Oct-10 16:30N 52°11' E 003°46'5 9.7
2017-Oct-10 16:00N 52°16' E 003°47'2711.0
2017-Oct-10 13:33N 52°42' E 003°55'112.3
2017-Oct-10 13:30N 52°43' E 003°55'16111.1
2017-Oct-09 22:58N 54°02' E 007°50'511.0
2017-Oct-09 22:29N 54°01' E 007°59'511.0
2017-Oct-09 22:00N 54°01' E 008°08'611.1
2017-Oct-09 21:30N 54°00' E 008°17'713.5
2017-Oct-09 21:00N 53°59' E 008°29'714.7
2017-Oct-09 20:30N 53°56' E 008°40'815.7
2017-Oct-09 20:00N 53°50' E 008°49'816.1
2017-Oct-09 19:31N 53°52' E 009°03'4 7.7
2017-Oct-09 19:00N 53°54' E 009°09'0 0.0
2017-Oct-09 18:31N 53°54' E 009°09'1 1.6
2017-Oct-09 18:00N 53°54' E 009°10'3 5.7
2017-Oct-09 17:30N 53°56' E 009°13'4 8.3
2017-Oct-09 17:00N 53°60' E 009°17'3 6.9
2017-Oct-09 16:30N 54°03' E 009°18'5 8.0
2017-Oct-09 15:56N 54°07' E 009°20'3 8.0
2017-Oct-09 15:30N 54°10' E 009°24'4 8.3
2017-Oct-09 15:00N 54°11' E 009°31'4 8.3
2017-Oct-09 14:30N 54°14' E 009°36'4 7.8
2017-Oct-09 14:00N 54°17' E 009°39'4 7.4
2017-Oct-09 13:30N 54°20' E 009°44'25 5.6
2017-Oct-09 09:05N 54°31' E 010°22'312.3
2017-Oct-09 08:52N 54°32' E 010°26'412.2
2017-Oct-09 08:30N 54°34' E 010°33'611.7
2017-Oct-09 08:00N 54°35' E 010°43'611.5
2017-Oct-09 07:30N 54°36' E 010°53'611.5
2017-Oct-09 07:00N 54°36' E 011°03'510.8
2017-Oct-09 06:30N 54°36' E 011°12'510.3
2017-Oct-09 06:00N 54°33' E 011°20'611.4
2017-Oct-09 05:30N 54°31' E 011°29'611.2
2017-Oct-09 05:00N 54°28' E 011°37'510.4
2017-Oct-09 04:30N 54°26' E 011°46'1010.8
2017-Oct-09 03:33N 54°26' E 012°03'110.8
2017-Oct-09 03:30N 54°26' E 012°04'6 9.9
2017-Oct-09 02:54N 54°31' E 012°12'511.7
2017-Oct-09 02:27N 54°36' E 012°15'510.6
2017-Oct-09 02:00N 54°39' E 012°20'611.1
2017-Oct-09 01:30N 54°42' E 012°29'4411.2
2017-Oct-08 21:35N 54°59' E 013°39'111.6
2017-Oct-08 21:30N 54°59' E 013°41'811.5
2017-Oct-08 20:49N 55°02' E 013°54'1211.3
2017-Oct-08 19:44N 55°09' E 014°11'412.2
2017-Oct-08 19:23N 55°13' E 014°16'512.1
2017-Oct-08 18:56N 55°17' E 014°21'512.2
2017-Oct-08 18:30N 55°21' E 014°27'1511.9
2017-Oct-08 17:14N 55°31' E 014°48'512.0
2017-Oct-08 16:51N 55°33' E 014°55'711.8
2017-Oct-08 16:13N 55°37' E 015°06'211.7
2017-Oct-08 16:00N 55°38' E 015°10'611.7
2017-Oct-08 15:30N 55°41' E 015°19'611.7
2017-Oct-08 15:00N 55°44' E 015°28'611.6
2017-Oct-08 14:30N 55°46' E 015°37'611.5
2017-Oct-08 14:00N 55°49' E 015°46'611.5
2017-Oct-08 13:30N 55°52' E 015°55'612.0
2017-Oct-08 13:00N 55°55' E 016°04'611.9
2017-Oct-08 12:30N 55°58' E 016°14'612.0
2017-Oct-08 12:00N 56°01' E 016°23'612.3
2017-Oct-08 11:30N 56°04' E 016°33'812.3
2017-Oct-08 10:49N 56°09' E 016°45'412.6
2017-Oct-08 10:30N 56°13' E 016°47'612.6
2017-Oct-08 10:00N 56°19' E 016°51'  
Track history (hours):
 
Tides and Currents Weather Stations Pressure Air Temp Water Temp Dewpoint Dewpoint Depression Visibility Wind Speed Wind Dir Waves Ship Positions

Johann Essberger

Last reported at 2017-Oct-17 13:31 UTC. Time now 2017-Oct-17 13:40 UTC.
Position N 51°09' E 001°38'.

Length 98 m; draft 5.8 m.

Type: Ship (hazmat cat B). MMSI: 255804460.

Date/timePositionNaut miles runAvg speedWind from/ knotsBaromVisibWave heightAir tempDewpointWater temp
2017-Oct-17 13:31N 51°09' E 001°38'510.3
2017-Oct-17 13:00N 51°13' E 001°44'510.3
2017-Oct-17 12:30N 51°17' E 001°48'510.0
2017-Oct-17 12:00N 51°22' E 001°52'5 9.9
2017-Oct-17 11:30N 51°26' E 001°56'510.2
2017-Oct-17 11:00N 51°30' E 002°01'510.6
2017-Oct-17 10:30N 51°34' E 002°07'511.1
2017-Oct-17 10:00N 51°38' E 002°13'5711.5
2017-Oct-17 05:03N 52°03' E 003°36'112.0
2017-Oct-17 05:00N 52°03' E 003°37'612.0
2017-Oct-17 04:30N 52°03' E 003°46'510.7
2017-Oct-17 04:00N 52°02' E 003°55'5 9.1
2017-Oct-17 03:30N 51°60' E 004°01'713.5
2017-Oct-17 03:00N 51°57' E 004°11'611.5
2017-Oct-17 02:30N 51°53' E 004°18'1 0.1
2017-Oct-16 15:59N 51°53' E 004°17'0 0.3
2017-Oct-16 15:31N 51°53' E 004°17'0 0.6
2017-Oct-16 15:01N 51°53' E 004°17'0 0.0
2017-Oct-16 10:08N 51°53' E 004°17'0 0.0
2017-Oct-16 05:23N 51°53' E 004°17'0 0.0
2017-Oct-16 04:59N 51°53' E 004°17'0 0.0
2017-Oct-16 04:23N 51°53' E 004°17'0 0.0
2017-Oct-16 03:59N 51°53' E 004°17'0 0.0
2017-Oct-16 03:26N 51°53' E 004°17'0 0.0
2017-Oct-16 02:47N 51°53' E 004°17'0 0.0
2017-Oct-16 00:44N 51°53' E 004°17'0 0.0
2017-Oct-15 23:38N 51°53' E 004°17'0 0.0
2017-Oct-15 23:26N 51°53' E 004°17'0 0.0
2017-Oct-15 20:17N 51°53' E 004°17'0 0.0
2017-Oct-15 19:41N 51°53' E 004°17'0 0.0
2017-Oct-15 19:29N 51°53' E 004°17'0 0.0
2017-Oct-15 18:59N 51°53' E 004°17'0 0.0
2017-Oct-15 17:41N 51°53' E 004°17'0 0.0
2017-Oct-15 17:20N 51°53' E 004°17'0 0.0
2017-Oct-15 16:17N 51°53' E 004°17'0 0.0
2017-Oct-15 14:55N 51°53' E 004°17'2 2.6
2017-Oct-15 14:00N 51°55' E 004°14'510.6
2017-Oct-15 13:31N 51°58' E 004°08'612.1
2017-Oct-15 13:01N 52°00' E 003°58'612.5
2017-Oct-15 12:30N 51°60' E 003°48'4 3.0
2017-Oct-15 11:08N 51°56' E 003°44'0 0.0
2017-Oct-15 10:56N 51°56' E 003°44'0 0.0
2017-Oct-15 10:26N 51°56' E 003°44'0 0.0
2017-Oct-15 09:56N 51°56' E 003°44'0 0.0
2017-Oct-15 09:20N 51°56' E 003°44'0 0.0
2017-Oct-15 08:56N 51°56' E 003°44'0 0.1
2017-Oct-15 08:26N 51°56' E 003°44'0 0.0
2017-Oct-15 07:56N 51°56' E 003°44'0 0.1
2017-Oct-15 07:29N 51°56' E 003°44'0 0.1
2017-Oct-15 06:59N 51°56' E 003°44'0 0.1
2017-Oct-15 06:20N 51°56' E 003°44'0 0.0
2017-Oct-15 05:56N 51°56' E 003°44'0 0.0
2017-Oct-15 05:20N 51°56' E 003°44'0 0.0
2017-Oct-15 04:59N 51°56' E 003°44'0 0.0
2017-Oct-15 04:23N 51°56' E 003°44'0 0.0
2017-Oct-15 03:56N 51°56' E 003°44'0 0.0
2017-Oct-15 03:29N 51°56' E 003°44'0 0.1
2017-Oct-15 02:23N 51°56' E 003°44'0 0.1
2017-Oct-15 01:59N 51°56' E 003°44'0 0.0
2017-Oct-15 01:29N 51°56' E 003°44'0 0.0
2017-Oct-15 00:56N 51°56' E 003°44'0 0.1
2017-Oct-15 00:29N 51°56' E 003°44'2 4.4
2017-Oct-15 00:00N 51°58' E 003°41'914.4
2017-Oct-14 23:24N 51°55' E 003°27'613.9
2017-Oct-14 22:59N 51°51' E 003°20'715.0
2017-Oct-14 22:30N 51°45' E 003°16'713.7
2017-Oct-14 22:00N 51°39' E 003°21'814.5
2017-Oct-14 21:29N 51°32' E 003°26'713.9
2017-Oct-14 21:00N 51°27' E 003°33'5 9.4
2017-Oct-14 20:30N 51°26' E 003°41'612.2
2017-Oct-14 20:00N 51°22' E 003°47'510.8
2017-Oct-14 19:30N 51°22' E 003°55'510.7
2017-Oct-14 19:00N 51°26' E 004°01'510.4
2017-Oct-14 18:30N 51°22' E 004°06'4 8.8
2017-Oct-14 18:00N 51°22' E 004°13'5 9.4
2017-Oct-14 17:30N 51°18' E 004°17'2 4.7
2017-Oct-14 17:00N 51°16' E 004°17'0 0.0
2017-Oct-14 16:31N 51°16' E 004°17'1 1.7
2017-Oct-14 16:00N 51°16' E 004°15'0 0.0
2017-Oct-14 15:28N 51°16' E 004°15'0 0.0
2017-Oct-14 14:55N 51°16' E 004°15'0 0.0
2017-Oct-14 14:28N 51°16' E 004°15'0 0.0
2017-Oct-14 13:58N 51°16' E 004°15'0 0.0
2017-Oct-14 13:25N 51°16' E 004°15'0 0.0
2017-Oct-14 12:55N 51°16' E 004°15'0 0.0
2017-Oct-14 12:28N 51°16' E 004°15'0 0.0
2017-Oct-14 11:55N 51°16' E 004°15'0 0.0
2017-Oct-14 11:22N 51°16' E 004°15'0 0.0
2017-Oct-14 10:55N 51°16' E 004°15'0 0.0
2017-Oct-14 10:22N 51°16' E 004°15'0 0.0
2017-Oct-14 09:58N 51°16' E 004°15'0 0.0
2017-Oct-14 09:28N 51°16' E 004°15'0 0.0
2017-Oct-14 08:58N 51°16' E 004°15'0 0.0
2017-Oct-14 08:25N 51°16' E 004°15'0 0.0
2017-Oct-14 07:49N 51°16' E 004°15'0 0.0
2017-Oct-14 07:28N 51°16' E 004°15'0 0.0
2017-Oct-14 06:58N 51°16' E 004°15'0 0.0
2017-Oct-14 06:22N 51°16' E 004°15'0 0.0
2017-Oct-14 05:58N 51°16' E 004°15'0 0.0
2017-Oct-14 05:28N 51°16' E 004°15'0 0.0
2017-Oct-14 04:58N 51°16' E 004°15'0 0.0
2017-Oct-14 04:30N 51°16' E 004°15'1 1.5
2017-Oct-14 04:00N 51°16' E 004°17'0 0.2
2017-Oct-14 03:31N 51°16' E 004°17'1 2.9
2017-Oct-14 03:00N 51°15' E 004°19'4 7.1
2017-Oct-14 02:31N 51°12' E 004°22'3 6.8
2017-Oct-14 02:00N 51°09' E 004°20'0 0.0
2017-Oct-13 18:34N 51°09' E 004°20'0 0.0
2017-Oct-13 18:13N 51°09' E 004°20'0 0.0
2017-Oct-13 16:52N 51°09' E 004°20'0 0.1
2017-Oct-13 16:30N 51°09' E 004°20'2 3.9
2017-Oct-13 16:00N 51°11' E 004°20'4 8.0
2017-Oct-13 15:30N 51°14' E 004°23'3 6.8
2017-Oct-13 15:01N 51°17' E 004°20'0 0.5
2017-Oct-13 14:30N 51°17' E 004°20'0 0.6
2017-Oct-13 14:00N 51°17' E 004°20'1 2.3
2017-Oct-13 13:30N 51°18' E 004°20'0 0.0
2017-Oct-13 12:31N 51°18' E 004°20'0 0.0
2017-Oct-13 12:01N 51°18' E 004°20'0 0.0
2017-Oct-13 11:49N 51°18' E 004°20'0 0.0
2017-Oct-13 11:01N 51°18' E 004°20'0 0.0
2017-Oct-13 10:43N 51°18' E 004°20'0 0.0
2017-Oct-13 10:25N 51°18' E 004°20'0 0.0
2017-Oct-12 23:55N 51°18' E 004°20'0 0.0
2017-Oct-12 22:25N 51°18' E 004°20'0 0.0
2017-Oct-12 10:57N 51°18' E 004°20'0 0.0
2017-Oct-12 02:09N 51°18' E 004°20'0 0.0
2017-Oct-12 01:39N 51°18' E 004°20'0 0.0
2017-Oct-12 01:27N 51°18' E 004°20'0 0.0
2017-Oct-12 00:39N 51°18' E 004°20'0 0.0
2017-Oct-12 00:15N 51°18' E 004°20'0 0.0
2017-Oct-12 00:01N 51°18' E 004°20'1 2.2
2017-Oct-11 23:30N 51°17' E 004°20'0 0.1
2017-Oct-11 23:00N 51°17' E 004°20'1 1.5
2017-Oct-11 22:30N 51°17' E 004°19'3 5.6
2017-Oct-11 22:00N 51°19' E 004°16'510.0
2017-Oct-11 21:31N 51°24' E 004°12'510.2
2017-Oct-11 21:00N 51°22' E 004°04'5 9.4
2017-Oct-11 20:30N 51°26' E 004°00'510.7
2017-Oct-11 20:00N 51°22' E 003°55'510.6
2017-Oct-11 19:30N 51°21' E 003°46'510.7
2017-Oct-11 19:00N 51°26' E 003°41'5 9.7
2017-Oct-11 18:30N 51°27' E 003°34'5 9.9
2017-Oct-11 18:00N 51°30' E 003°28'5 9.7
2017-Oct-11 17:30N 51°34' E 003°24'611.0
2017-Oct-11 16:57N 51°40' E 003°19'40 2.4
2017-Oct-10 23:53N 51°53' E 004°21'0 0.0
2017-Oct-10 23:29N 51°53' E 004°21'0 0.0
2017-Oct-10 22:59N 51°53' E 004°21'0 0.0
2017-Oct-10 22:29N 51°53' E 004°21'0 0.0
2017-Oct-10 21:59N 51°53' E 004°21'0 0.0
2017-Oct-10 21:20N 51°53' E 004°21'0 0.0
2017-Oct-10 20:59N 51°53' E 004°21'0 0.0
2017-Oct-10 20:29N 51°53' E 004°21'0 0.0
2017-Oct-10 20:00N 51°53' E 004°21'0 0.6
2017-Oct-10 19:30N 51°53' E 004°21'3 5.8
2017-Oct-10 19:00N 51°54' E 004°16'612.0
2017-Oct-10 18:30N 51°58' E 004°09'613.0
2017-Oct-10 18:00N 52°00' E 003°59'713.7
2017-Oct-10 17:29N 52°02' E 003°47'5 9.6
2017-Oct-10 17:00N 52°06' E 003°46'5 9.9
2017-Oct-10 16:30N 52°11' E 003°46'5 9.7
2017-Oct-10 16:00N 52°16' E 003°47'2711.0
2017-Oct-10 13:33N 52°42' E 003°55'112.3
2017-Oct-10 13:30N 52°43' E 003°55'16111.1
2017-Oct-09 22:58N 54°02' E 007°50'511.0
2017-Oct-09 22:29N 54°01' E 007°59'511.0
2017-Oct-09 22:00N 54°01' E 008°08'611.1
2017-Oct-09 21:30N 54°00' E 008°17'713.5
2017-Oct-09 21:00N 53°59' E 008°29'714.7
2017-Oct-09 20:30N 53°56' E 008°40'815.7
2017-Oct-09 20:00N 53°50' E 008°49'816.1
2017-Oct-09 19:31N 53°52' E 009°03'4 7.7
2017-Oct-09 19:00N 53°54' E 009°09'0 0.0
2017-Oct-09 18:31N 53°54' E 009°09'1 1.6
2017-Oct-09 18:00N 53°54' E 009°10'3 5.7
2017-Oct-09 17:30N 53°56' E 009°13'4 8.3
2017-Oct-09 17:00N 53°60' E 009°17'3 6.9
2017-Oct-09 16:30N 54°03' E 009°18'5 8.0
2017-Oct-09 15:56N 54°07' E 009°20'3 8.0
2017-Oct-09 15:30N 54°10' E 009°24'4 8.3
2017-Oct-09 15:00N 54°11' E 009°31'4 8.3
2017-Oct-09 14:30N 54°14' E 009°36'4 7.8
2017-Oct-09 14:00N 54°17' E 009°39'4 7.4
2017-Oct-09 13:30N 54°20' E 009°44'25 5.6
2017-Oct-09 09:05N 54°31' E 010°22'312.3
2017-Oct-09 08:52N 54°32' E 010°26'412.2
2017-Oct-09 08:30N 54°34' E 010°33'611.7
2017-Oct-09 08:00N 54°35' E 010°43'611.5
2017-Oct-09 07:30N 54°36' E 010°53'611.5
2017-Oct-09 07:00N 54°36' E 011°03'510.8
2017-Oct-09 06:30N 54°36' E 011°12'510.3
2017-Oct-09 06:00N 54°33' E 011°20'611.4
2017-Oct-09 05:30N 54°31' E 011°29'611.2
2017-Oct-09 05:00N 54°28' E 011°37'510.4
2017-Oct-09 04:30N 54°26' E 011°46'1010.8
2017-Oct-09 03:33N 54°26' E 012°03'110.8
2017-Oct-09 03:30N 54°26' E 012°04'6 9.9
2017-Oct-09 02:54N 54°31' E 012°12'511.7
2017-Oct-09 02:27N 54°36' E 012°15'510.6
2017-Oct-09 02:00N 54°39' E 012°20'611.1
2017-Oct-09 01:30N 54°42' E 012°29'4411.2
2017-Oct-08 21:35N 54°59' E 013°39'111.6
2017-Oct-08 21:30N 54°59' E 013°41'811.5
2017-Oct-08 20:49N 55°02' E 013°54'1211.3
2017-Oct-08 19:44N 55°09' E 014°11'412.2
2017-Oct-08 19:23N 55°13' E 014°16'512.1
2017-Oct-08 18:56N 55°17' E 014°21'512.2
2017-Oct-08 18:30N 55°21' E 014°27'1511.9
2017-Oct-08 17:14N 55°31' E 014°48'512.0
2017-Oct-08 16:51N 55°33' E 014°55'711.8
2017-Oct-08 16:13N 55°37' E 015°06'211.7
2017-Oct-08 16:00N 55°38' E 015°10'611.7
2017-Oct-08 15:30N 55°41' E 015°19'611.7
2017-Oct-08 15:00N 55°44' E 015°28'611.6
2017-Oct-08 14:30N 55°46' E 015°37'611.5
2017-Oct-08 14:00N 55°49' E 015°46'611.5
2017-Oct-08 13:30N 55°52' E 015°55'612.0
2017-Oct-08 13:00N 55°55' E 016°04'611.9
2017-Oct-08 12:30N 55°58' E 016°14'612.0
2017-Oct-08 12:00N 56°01' E 016°23'612.3
2017-Oct-08 11:30N 56°04' E 016°33'812.3
2017-Oct-08 10:49N 56°09' E 016°45'412.6
2017-Oct-08 10:30N 56°13' E 016°47'612.6
2017-Oct-08 10:00N 56°19' E 016°51'  

Dump ship's entire track history